createdAt,value
2024-03-08T00:00:11.970Z,995.63
2024-03-08T00:01:11.943Z,995.60
2024-03-08T00:02:11.957Z,995.63
2024-03-08T00:03:12.034Z,995.63
2024-03-08T00:04:11.877Z,995.61
2024-03-08T00:05:11.867Z,995.59
2024-03-08T00:06:11.860Z,995.57
2024-03-08T00:07:11.836Z,995.58
2024-03-08T00:08:11.795Z,995.61
2024-03-08T00:09:11.826Z,995.56
2024-03-08T00:10:11.788Z,995.54
2024-03-08T00:11:11.759Z,995.56
2024-03-08T00:12:11.742Z,995.50
2024-03-08T00:13:11.703Z,995.57
2024-03-08T00:14:11.718Z,995.55
2024-03-08T00:15:11.709Z,995.55
2024-03-08T00:16:11.644Z,995.54
2024-03-08T00:17:11.641Z,995.50
2024-03-08T00:18:11.720Z,995.46
2024-03-08T00:19:11.609Z,995.49
2024-03-08T00:20:11.576Z,995.52
2024-03-08T00:21:11.694Z,995.50
2024-03-08T00:22:11.537Z,995.51
2024-03-08T00:23:11.505Z,995.54
2024-03-08T00:24:11.549Z,995.52
2024-03-08T00:25:11.606Z,995.54
2024-03-08T00:26:11.454Z,995.48
2024-03-08T00:27:11.529Z,995.52
2024-03-08T00:28:11.423Z,995.48
2024-03-08T00:29:11.396Z,995.52
2024-03-08T00:30:11.438Z,995.50
2024-03-08T00:31:11.361Z,995.47
2024-03-08T00:32:11.332Z,995.47
2024-03-08T00:33:11.409Z,995.49
2024-03-08T00:34:11.297Z,995.42
2024-03-08T00:35:11.286Z,995.44
2024-03-08T00:36:11.271Z,995.42
2024-03-08T00:37:11.247Z,995.40
2024-03-08T00:38:11.216Z,995.38
2024-03-08T00:39:11.226Z,995.34
2024-03-08T00:40:11.181Z,995.42
2024-03-08T00:41:11.155Z,995.35
2024-03-08T00:42:11.205Z,995.35
2024-03-08T00:43:11.129Z,995.37
2024-03-08T00:44:11.107Z,995.38
2024-03-08T00:45:11.150Z,995.32
2024-03-08T00:46:11.102Z,995.30
2024-03-08T00:47:11.045Z,995.32
2024-03-08T00:48:11.081Z,995.28
2024-03-08T00:49:11.024Z,995.30
2024-03-08T00:50:11.006Z,995.28
2024-03-08T00:51:10.982Z,995.24
2024-03-08T00:52:10.943Z,995.25
2024-03-08T00:53:10.940Z,995.27
2024-03-08T00:54:10.947Z,995.23
2024-03-08T00:55:10.882Z,995.25
2024-03-08T00:56:10.865Z,995.23
2024-03-08T00:57:10.950Z,995.20
2024-03-08T00:58:10.828Z,995.15
2024-03-08T00:59:10.807Z,995.18
2024-03-08T01:00:11.012Z,995.16
2024-03-08T01:01:10.787Z,995.14
2024-03-08T01:02:10.794Z,995.14
2024-03-08T01:03:10.761Z,995.07
2024-03-08T01:04:10.710Z,995.07
2024-03-08T01:05:10.686Z,995.10
2024-03-08T01:06:10.714Z,994.99
2024-03-08T01:07:10.649Z,995.02
2024-03-08T01:08:10.631Z,995.07
2024-03-08T01:09:10.760Z,995.05
2024-03-08T01:10:10.950Z,995.03
2024-03-08T01:11:10.744Z,995.01
2024-03-08T01:12:10.584Z,995.02
2024-03-08T01:13:10.530Z,995.03
2024-03-08T01:14:10.508Z,995.01
2024-03-08T01:15:10.595Z,995.04
2024-03-08T01:16:11.475Z,995.01
2024-03-08T01:17:10.503Z,995.01
2024-03-08T01:18:10.518Z,994.94
2024-03-08T01:19:10.632Z,994.98
2024-03-08T01:20:10.389Z,994.96
2024-03-08T01:21:10.408Z,994.96
2024-03-08T01:22:10.356Z,994.93
2024-03-08T01:23:10.351Z,994.94
2024-03-08T01:24:10.468Z,994.95
2024-03-08T01:25:10.297Z,994.95
2024-03-08T01:26:10.281Z,994.89
2024-03-08T01:27:10.295Z,994.87
2024-03-08T01:28:10.269Z,994.89
2024-03-08T01:29:10.225Z,994.84
2024-03-08T01:30:10.233Z,994.84
2024-03-08T01:31:10.184Z,994.84
2024-03-08T01:32:10.163Z,994.84
2024-03-08T01:33:10.198Z,994.80
2024-03-08T01:34:10.164Z,994.78
2024-03-08T01:35:10.099Z,994.74
2024-03-08T01:36:10.170Z,994.78
2024-03-08T01:37:10.054Z,994.72
2024-03-08T01:38:10.030Z,994.72
2024-03-08T01:39:10.184Z,994.70
2024-03-08T01:40:09.991Z,994.74
2024-03-08T01:41:09.984Z,994.73
2024-03-08T01:42:09.973Z,994.66
2024-03-08T01:43:09.935Z,994.66
2024-03-08T01:44:09.916Z,994.62
2024-03-08T01:45:09.944Z,994.63
2024-03-08T01:46:09.887Z,994.59
2024-03-08T01:47:09.855Z,994.57
2024-03-08T01:48:09.885Z,994.61
2024-03-08T01:49:09.821Z,994.55
2024-03-08T01:50:09.823Z,994.57
2024-03-08T01:51:09.843Z,994.54
2024-03-08T01:52:09.753Z,994.54
2024-03-08T01:53:09.739Z,994.50
2024-03-08T01:54:09.756Z,994.51
2024-03-08T01:55:09.701Z,994.48
2024-03-08T01:56:09.678Z,994.46
2024-03-08T01:57:09.807Z,994.45
2024-03-08T01:58:09.640Z,994.45
2024-03-08T01:59:09.631Z,994.45
2024-03-08T02:00:09.637Z,994.36
2024-03-08T02:01:09.589Z,994.44
2024-03-08T02:02:09.559Z,994.40
2024-03-08T02:03:09.599Z,994.39
2024-03-08T02:04:09.519Z,994.35
2024-03-08T02:05:09.511Z,994.38
2024-03-08T02:06:09.543Z,994.36
2024-03-08T02:07:11.292Z,994.33
2024-03-08T02:08:09.474Z,994.38
2024-03-08T02:09:09.511Z,994.36
2024-03-08T02:10:09.396Z,994.33
2024-03-08T02:11:09.422Z,994.35
2024-03-08T02:12:09.638Z,994.34
2024-03-08T02:13:09.352Z,994.35
2024-03-08T02:14:09.316Z,994.32
2024-03-08T02:15:09.371Z,994.35
2024-03-08T02:16:09.651Z,994.36
2024-03-08T02:17:09.265Z,994.32
2024-03-08T02:18:09.338Z,994.30
2024-03-08T02:19:09.216Z,994.27
2024-03-08T02:20:09.205Z,994.30
2024-03-08T02:21:09.207Z,994.27
2024-03-08T02:22:09.193Z,994.29
2024-03-08T02:23:09.135Z,994.25
2024-03-08T02:24:09.218Z,994.23
2024-03-08T02:25:09.105Z,994.21
2024-03-08T02:26:09.080Z,994.22
2024-03-08T02:27:09.178Z,994.21
2024-03-08T02:28:09.034Z,994.25
2024-03-08T02:29:09.018Z,994.23
2024-03-08T02:30:09.077Z,994.25
2024-03-08T02:31:08.981Z,994.22
2024-03-08T02:32:08.973Z,994.20
2024-03-08T02:33:08.998Z,994.22
2024-03-08T02:34:08.922Z,994.19
2024-03-08T02:35:08.927Z,994.19
2024-03-08T02:36:08.950Z,994.18
2024-03-08T02:37:08.856Z,994.18
2024-03-08T02:38:08.859Z,994.16
2024-03-08T02:39:08.960Z,994.15
2024-03-08T02:40:08.787Z,994.14
2024-03-08T02:41:08.818Z,994.16
2024-03-08T02:42:08.839Z,994.12
2024-03-08T02:43:08.742Z,994.14
2024-03-08T02:44:08.725Z,994.13
2024-03-08T02:45:08.782Z,994.12
2024-03-08T02:46:08.671Z,994.09
2024-03-08T02:47:08.666Z,994.09
2024-03-08T02:48:08.723Z,994.11
2024-03-08T02:49:08.628Z,994.07
2024-03-08T02:50:08.598Z,994.02
2024-03-08T02:51:08.607Z,994.05
2024-03-08T02:52:08.564Z,994.06
2024-03-08T02:53:08.545Z,994.05
2024-03-08T02:54:08.579Z,994.05
2024-03-08T02:55:10.942Z,994.05
2024-03-08T02:56:08.475Z,994.06
2024-03-08T02:57:08.708Z,994.05
2024-03-08T02:58:08.431Z,994.06
2024-03-08T02:59:08.409Z,994.04
2024-03-08T03:00:08.566Z,994.01
2024-03-08T03:01:08.411Z,994.04
2024-03-08T03:02:08.354Z,994.03
2024-03-08T03:03:08.713Z,994.03
2024-03-08T03:04:08.309Z,993.99
2024-03-08T03:05:08.288Z,993.99
2024-03-08T03:06:08.334Z,993.99
2024-03-08T03:07:08.281Z,994.04
2024-03-08T03:08:08.231Z,994.04
2024-03-08T03:09:08.256Z,994.02
2024-03-08T03:10:08.265Z,994.00
2024-03-08T03:11:08.281Z,993.94
2024-03-08T03:12:08.219Z,993.96
2024-03-08T03:13:08.137Z,993.95
2024-03-08T03:14:08.110Z,993.96
2024-03-08T03:15:08.271Z,993.92
2024-03-08T03:16:08.063Z,993.92
2024-03-08T03:17:08.072Z,993.89
2024-03-08T03:18:08.172Z,993.87
2024-03-08T03:19:08.000Z,993.87
2024-03-08T03:20:07.981Z,993.80
2024-03-08T03:21:08.061Z,993.84
2024-03-08T03:22:07.962Z,993.83
2024-03-08T03:23:07.947Z,993.82
2024-03-08T03:24:07.941Z,993.82
2024-03-08T03:25:07.891Z,993.76
2024-03-08T03:26:07.885Z,993.80
2024-03-08T03:27:07.912Z,993.75
2024-03-08T03:28:07.826Z,993.77
2024-03-08T03:29:07.799Z,993.77
2024-03-08T03:30:07.946Z,993.74
2024-03-08T03:31:09.566Z,993.76
2024-03-08T03:32:07.744Z,993.74
2024-03-08T03:33:07.917Z,993.72
2024-03-08T03:34:07.693Z,993.73
2024-03-08T03:35:07.674Z,993.66
2024-03-08T03:36:07.706Z,993.68
2024-03-08T03:37:07.641Z,993.69
2024-03-08T03:38:07.667Z,993.69
2024-03-08T03:39:07.712Z,993.63
2024-03-08T03:40:07.609Z,993.64
2024-03-08T03:41:07.597Z,993.63
2024-03-08T03:42:07.596Z,993.63
2024-03-08T03:43:07.607Z,993.61
2024-03-08T03:44:07.495Z,993.60
2024-03-08T03:45:07.604Z,993.59
2024-03-08T03:46:07.454Z,993.60
2024-03-08T03:47:07.439Z,993.58
2024-03-08T03:48:07.506Z,993.61
2024-03-08T03:49:07.392Z,993.60
2024-03-08T03:50:07.371Z,993.63
2024-03-08T03:51:07.381Z,993.65
2024-03-08T03:52:07.390Z,993.63
2024-03-08T03:53:07.312Z,993.59
2024-03-08T03:54:07.396Z,993.61
2024-03-08T03:55:07.279Z,993.61
2024-03-08T03:56:07.265Z,993.54
2024-03-08T03:57:07.330Z,993.56
2024-03-08T03:58:07.237Z,993.54
2024-03-08T03:59:07.197Z,993.55
2024-03-08T04:00:07.279Z,993.52
2024-03-08T04:01:07.175Z,993.55
2024-03-08T04:02:07.137Z,993.50
2024-03-08T04:03:07.558Z,993.52
2024-03-08T04:04:07.088Z,993.52
2024-03-08T04:05:07.069Z,993.51
2024-03-08T04:06:07.093Z,993.52
2024-03-08T04:07:07.030Z,993.51
2024-03-08T04:08:07.008Z,993.48
2024-03-08T04:09:07.081Z,993.50
2024-03-08T04:10:06.970Z,993.49
2024-03-08T04:11:06.978Z,993.49
2024-03-08T04:12:06.990Z,993.45
2024-03-08T04:13:06.929Z,993.46
2024-03-08T04:14:06.915Z,993.46
2024-03-08T04:15:06.951Z,993.45
2024-03-08T04:16:06.842Z,993.47
2024-03-08T04:17:06.827Z,993.43
2024-03-08T04:18:06.871Z,993.46
2024-03-08T04:19:06.792Z,993.46
2024-03-08T04:20:06.767Z,993.49
2024-03-08T04:21:06.767Z,993.50
2024-03-08T04:22:06.717Z,993.50
2024-03-08T04:23:06.706Z,993.49
2024-03-08T04:24:06.834Z,993.48
2024-03-08T04:25:06.676Z,993.51
2024-03-08T04:26:06.635Z,993.50
2024-03-08T04:27:06.667Z,993.54
2024-03-08T04:28:06.609Z,993.47
2024-03-08T04:29:06.573Z,993.49
2024-03-08T04:30:06.607Z,993.51
2024-03-08T04:31:06.539Z,993.45
2024-03-08T04:32:06.518Z,993.50
2024-03-08T04:33:06.617Z,993.47
2024-03-08T04:34:06.487Z,993.46
2024-03-08T04:35:06.508Z,993.45
2024-03-08T04:36:06.502Z,993.45
2024-03-08T04:37:06.412Z,993.47
2024-03-08T04:38:06.397Z,993.44
2024-03-08T04:39:06.560Z,993.49
2024-03-08T04:40:06.352Z,993.46
2024-03-08T04:41:06.327Z,993.48
2024-03-08T04:42:06.796Z,993.46
2024-03-08T04:43:06.290Z,993.45
2024-03-08T04:44:06.275Z,993.44
2024-03-08T04:45:06.335Z,993.42
2024-03-08T04:46:06.276Z,993.42
2024-03-08T04:47:06.207Z,993.43
2024-03-08T04:48:06.256Z,993.43
2024-03-08T04:49:06.176Z,993.40
2024-03-08T04:50:06.146Z,993.44
2024-03-08T04:51:06.244Z,993.45
2024-03-08T04:52:06.115Z,993.43
2024-03-08T04:53:06.083Z,993.39
2024-03-08T04:54:06.207Z,993.42
2024-03-08T04:55:06.047Z,993.40
2024-03-08T04:56:06.038Z,993.41
2024-03-08T04:57:08.918Z,993.42
2024-03-08T04:58:05.986Z,993.42
2024-03-08T04:59:05.961Z,993.41
2024-03-08T05:00:05.981Z,993.43
2024-03-08T05:01:05.952Z,993.41
2024-03-08T05:02:05.924Z,993.38
2024-03-08T05:03:06.052Z,993.39
2024-03-08T05:04:07.552Z,993.34
2024-03-08T05:05:05.838Z,993.32
2024-03-08T05:06:05.877Z,993.33
2024-03-08T05:07:05.805Z,993.30
2024-03-08T05:08:05.772Z,993.33
2024-03-08T05:09:05.857Z,993.29
2024-03-08T05:10:05.736Z,993.31
2024-03-08T05:11:05.729Z,993.26
2024-03-08T05:12:05.805Z,993.26
2024-03-08T05:13:05.686Z,993.26
2024-03-08T05:14:05.669Z,993.26
2024-03-08T05:15:05.684Z,993.25
2024-03-08T05:16:05.616Z,993.24
2024-03-08T05:17:05.597Z,993.16
2024-03-08T05:18:05.760Z,993.19
2024-03-08T05:19:05.547Z,993.18
2024-03-08T05:20:05.529Z,993.18
2024-03-08T05:21:05.552Z,993.17
2024-03-08T05:22:05.490Z,993.14
2024-03-08T05:23:05.465Z,993.12
2024-03-08T05:24:05.498Z,993.13
2024-03-08T05:25:05.424Z,993.15
2024-03-08T05:26:06.878Z,993.12
2024-03-08T05:27:05.452Z,993.13
2024-03-08T05:28:05.390Z,993.13
2024-03-08T05:29:05.351Z,993.07
2024-03-08T05:30:05.369Z,993.10
2024-03-08T05:31:05.312Z,993.09
2024-03-08T05:32:05.323Z,993.10
2024-03-08T05:33:05.348Z,993.05
2024-03-08T05:34:05.294Z,993.11
2024-03-08T05:35:05.220Z,993.07
2024-03-08T05:36:05.246Z,993.10
2024-03-08T05:37:05.184Z,993.07
2024-03-08T05:38:05.169Z,993.05
2024-03-08T05:39:05.225Z,993.05
2024-03-08T05:40:05.113Z,993.02
2024-03-08T05:41:05.100Z,993.02
2024-03-08T05:42:05.098Z,993.02
2024-03-08T05:43:05.059Z,993.00
2024-03-08T05:44:05.032Z,993.00
2024-03-08T05:45:05.041Z,992.98
2024-03-08T05:46:04.996Z,993.01
2024-03-08T05:47:04.976Z,993.06
2024-03-08T05:48:05.070Z,992.98
2024-03-08T05:49:05.046Z,992.99
2024-03-08T05:50:04.929Z,993.01
2024-03-08T05:51:05.028Z,993.00
2024-03-08T05:52:04.869Z,992.99
2024-03-08T05:53:04.854Z,992.98
2024-03-08T05:54:04.848Z,993.01
2024-03-08T05:55:04.803Z,992.97
2024-03-08T05:56:04.789Z,992.99
2024-03-08T05:57:04.802Z,992.97
2024-03-08T05:58:04.748Z,992.96
2024-03-08T05:59:04.726Z,992.95
2024-03-08T06:00:04.762Z,992.98
2024-03-08T06:01:04.693Z,992.95
2024-03-08T06:02:04.677Z,992.98
2024-03-08T06:03:04.679Z,992.93
2024-03-08T06:04:04.624Z,992.93
2024-03-08T06:05:04.617Z,992.92
2024-03-08T06:06:04.633Z,992.97
2024-03-08T06:07:04.563Z,992.98
2024-03-08T06:08:04.563Z,992.98
2024-03-08T06:09:04.569Z,992.96
2024-03-08T06:10:04.530Z,993.01
2024-03-08T06:11:04.504Z,993.02
2024-03-08T06:12:04.490Z,993.02
2024-03-08T06:13:04.459Z,993.02
2024-03-08T06:14:04.415Z,993.03
2024-03-08T06:15:04.407Z,993.01
2024-03-08T06:16:04.373Z,993.05
2024-03-08T06:17:04.368Z,993.00
2024-03-08T06:18:04.438Z,993.00
2024-03-08T06:19:04.312Z,992.98
2024-03-08T06:20:04.294Z,992.99
2024-03-08T06:21:04.419Z,993.01
2024-03-08T06:22:04.278Z,993.00
2024-03-08T06:23:04.246Z,993.00
2024-03-08T06:24:04.422Z,993.01
2024-03-08T06:25:04.194Z,992.96
2024-03-08T06:26:04.168Z,993.01
2024-03-08T06:27:04.173Z,992.98
2024-03-08T06:28:04.129Z,992.98
2024-03-08T06:29:04.121Z,992.96
2024-03-08T06:30:04.105Z,992.99
2024-03-08T06:31:04.064Z,992.98
2024-03-08T06:32:04.073Z,993.00
2024-03-08T06:33:04.085Z,992.93
2024-03-08T06:34:04.168Z,992.97
2024-03-08T06:35:03.984Z,992.98
2024-03-08T06:36:04.011Z,992.96
2024-03-08T06:37:03.947Z,992.95
2024-03-08T06:38:03.948Z,992.99
2024-03-08T06:39:03.960Z,992.94
2024-03-08T06:40:03.878Z,992.96
2024-03-08T06:41:03.893Z,992.95
2024-03-08T06:42:03.874Z,992.97
2024-03-08T06:43:03.833Z,992.93
2024-03-08T06:44:03.797Z,992.93
2024-03-08T06:45:03.869Z,992.92
2024-03-08T06:46:03.757Z,992.97
2024-03-08T06:47:03.739Z,992.96
2024-03-08T06:48:03.798Z,992.92
2024-03-08T06:49:03.736Z,992.90
2024-03-08T06:50:03.694Z,992.87
2024-03-08T06:51:03.687Z,992.86
2024-03-08T06:52:03.635Z,992.91
2024-03-08T06:53:03.625Z,992.83
2024-03-08T06:54:03.717Z,992.78
2024-03-08T06:55:03.578Z,992.82
2024-03-08T06:56:03.560Z,992.86
2024-03-08T06:57:03.652Z,992.81
2024-03-08T06:58:03.512Z,992.85
2024-03-08T06:59:03.494Z,992.84
2024-03-08T07:00:03.505Z,992.84
2024-03-08T07:01:03.510Z,992.83
2024-03-08T07:02:03.477Z,992.89
2024-03-08T07:03:03.504Z,992.84
2024-03-08T07:04:03.389Z,992.89
2024-03-08T07:05:03.371Z,992.87
2024-03-08T07:06:03.364Z,992.82
2024-03-08T07:07:03.338Z,992.83
2024-03-08T07:08:03.354Z,992.86
2024-03-08T07:09:03.460Z,992.82
2024-03-08T07:10:03.924Z,992.88
2024-03-08T07:11:03.311Z,992.90
2024-03-08T07:12:03.245Z,992.89
2024-03-08T07:13:03.302Z,992.85
2024-03-08T07:14:03.188Z,992.85
2024-03-08T07:15:03.224Z,992.90
2024-03-08T07:16:03.197Z,992.86
2024-03-08T07:17:05.604Z,992.83
2024-03-08T07:18:03.231Z,992.88
2024-03-08T07:19:03.231Z,992.83
2024-03-08T07:20:03.074Z,992.83
2024-03-08T07:21:03.151Z,992.81
2024-03-08T07:22:03.031Z,992.82
2024-03-08T07:23:03.005Z,992.80
2024-03-08T07:24:03.077Z,992.84
2024-03-08T07:25:02.976Z,992.84
2024-03-08T07:26:03.029Z,992.81
2024-03-08T07:27:03.110Z,992.79
2024-03-08T07:28:02.914Z,992.79
2024-03-08T07:29:02.901Z,992.73
2024-03-08T07:31:02.928Z,992.66
2024-03-08T07:32:02.925Z,992.60
2024-03-08T07:33:02.908Z,992.62
2024-03-08T07:34:02.797Z,992.63
2024-03-08T07:35:02.771Z,992.61
2024-03-08T07:36:02.807Z,992.56
2024-03-08T07:37:03.608Z,992.66
2024-03-08T07:38:02.730Z,992.65
2024-03-08T07:39:02.709Z,992.67
2024-03-08T07:40:02.684Z,992.63
2024-03-08T07:41:04.500Z,992.64
2024-03-08T07:42:02.713Z,992.62
2024-03-08T07:43:02.628Z,992.57
2024-03-08T07:44:02.608Z,992.64
2024-03-08T07:45:02.644Z,992.64
2024-03-08T07:46:02.568Z,992.67
2024-03-08T07:47:02.541Z,992.65
2024-03-08T07:48:02.625Z,992.60
2024-03-08T07:49:02.546Z,992.66
2024-03-08T07:50:05.066Z,992.66
2024-03-08T07:51:02.488Z,992.72
2024-03-08T07:52:02.452Z,992.67
2024-03-08T07:53:02.438Z,992.68
2024-03-08T07:54:02.430Z,992.70
2024-03-08T07:55:02.392Z,992.65
2024-03-08T07:56:02.378Z,992.65
2024-03-08T07:57:02.370Z,992.71
2024-03-08T07:58:02.450Z,992.70
2024-03-08T07:59:02.376Z,992.69
2024-03-08T08:00:02.311Z,992.67
2024-03-08T08:01:02.307Z,992.68
2024-03-08T08:02:02.442Z,992.68
2024-03-08T08:03:02.255Z,992.67
2024-03-08T08:04:02.232Z,992.64
2024-03-08T08:05:02.222Z,992.67
2024-03-08T08:06:02.198Z,992.63
2024-03-08T08:07:02.188Z,992.67
2024-03-08T08:08:02.209Z,992.65
2024-03-08T08:09:02.152Z,992.65
2024-03-08T08:10:02.140Z,992.67
2024-03-08T08:11:02.196Z,992.62
2024-03-08T08:12:02.107Z,992.63
2024-03-08T08:13:03.497Z,992.64
2024-03-08T08:14:02.091Z,992.59
2024-03-08T08:15:02.050Z,992.62
2024-03-08T08:16:02.039Z,992.58
2024-03-08T08:17:02.209Z,992.59
2024-03-08T08:18:02.098Z,992.58
2024-03-08T08:19:02.012Z,992.52
2024-03-08T08:20:01.988Z,992.57
2024-03-08T08:21:01.962Z,992.59
2024-03-08T08:22:01.952Z,992.59
2024-03-08T08:23:01.958Z,992.57
2024-03-08T08:24:01.916Z,992.54
2024-03-08T08:25:01.898Z,992.63
2024-03-08T08:26:01.893Z,992.63
2024-03-08T08:27:01.866Z,992.59
2024-03-08T08:28:01.849Z,992.49
2024-03-08T08:29:01.838Z,992.53
2024-03-08T08:30:01.850Z,992.50
2024-03-08T08:31:01.810Z,992.51
2024-03-08T08:32:03.575Z,992.48
2024-03-08T08:33:01.814Z,992.47
2024-03-08T08:34:01.773Z,992.47
2024-03-08T08:35:01.755Z,992.40
2024-03-08T08:36:01.746Z,992.47
2024-03-08T08:37:01.721Z,992.47
2024-03-08T08:38:01.735Z,992.68
2024-03-08T08:39:01.694Z,992.73
2024-03-08T08:40:01.734Z,992.62
2024-03-08T08:41:01.799Z,992.47
2024-03-08T08:42:01.653Z,992.39
2024-03-08T08:43:01.649Z,992.33
2024-03-08T08:44:09.063Z,992.34
2024-03-08T08:45:11.392Z,992.29
2024-03-08T08:46:01.619Z,992.34
2024-03-08T08:47:09.868Z,992.32
2024-03-08T08:48:01.598Z,992.28
2024-03-08T08:49:01.555Z,992.27
2024-03-08T08:50:01.542Z,992.35
2024-03-08T08:51:01.525Z,992.28
2024-03-08T08:52:09.049Z,992.23
2024-03-08T08:53:01.536Z,992.28
2024-03-08T08:54:01.497Z,992.34
2024-03-08T08:55:01.475Z,992.51
2024-03-08T08:56:01.531Z,992.64
2024-03-08T08:57:01.449Z,992.54
2024-03-08T08:58:01.435Z,992.26
2024-03-08T08:59:01.454Z,992.21
2024-03-08T09:00:01.469Z,992.24
2024-03-08T09:01:01.438Z,992.21
2024-03-08T09:02:01.679Z,992.14
2024-03-08T09:03:01.374Z,992.12
2024-03-08T09:04:01.388Z,992.26
2024-03-08T09:05:01.452Z,992.17
2024-03-08T09:06:01.339Z,992.15
2024-03-08T09:07:01.320Z,992.18
2024-03-08T09:08:01.517Z,992.21
2024-03-08T09:09:04.597Z,992.19
2024-03-08T09:11:01.375Z,992.19
2024-03-08T09:12:01.398Z,992.20
2024-03-08T09:13:01.450Z,992.39
2024-03-08T09:14:01.452Z,992.41
2024-03-08T09:15:01.246Z,992.31
2024-03-08T09:16:01.224Z,992.10
2024-03-08T09:17:01.347Z,992.02
2024-03-08T09:18:01.441Z,992.04
2024-03-08T09:19:02.103Z,992.03
2024-03-08T09:20:01.589Z,992.03
2024-03-08T09:21:01.308Z,992.01
2024-03-08T09:22:01.730Z,992.04
2024-03-08T09:23:02.298Z,992.01
2024-03-08T09:24:01.977Z,991.94
2024-03-08T09:25:01.658Z,992.04
2024-03-08T09:26:05.157Z,992.00
2024-03-08T09:27:01.300Z,992.03
2024-03-08T09:28:02.146Z,992.06
2024-03-08T09:29:02.129Z,991.90
2024-03-08T09:30:01.576Z,991.97
2024-03-08T09:31:01.949Z,992.01
2024-03-08T09:32:01.142Z,992.18
2024-03-08T09:33:01.191Z,992.13
2024-03-08T09:34:02.933Z,992.03
2024-03-08T09:35:01.199Z,991.84
2024-03-08T09:36:04.068Z,991.85
2024-03-08T09:37:01.148Z,991.80
2024-03-08T09:38:01.468Z,991.79
2024-03-08T09:39:03.693Z,991.75
2024-03-08T09:40:01.628Z,991.80
2024-03-08T09:41:01.734Z,991.70
2024-03-08T09:43:03.050Z,991.69
2024-03-08T09:45:05.011Z,991.63
2024-03-08T09:47:01.808Z,991.65
2024-03-08T09:48:04.640Z,991.55
2024-03-08T09:51:05.862Z,991.94
2024-03-08T09:52:06.514Z,991.87
2024-03-08T09:56:04.769Z,991.50
2024-03-08T09:57:01.178Z,991.45
2024-03-08T09:58:00.989Z,991.60
2024-03-08T09:59:00.948Z,991.56
2024-03-08T10:00:00.839Z,991.60
2024-03-08T10:01:00.925Z,991.61
2024-03-08T10:02:01.117Z,991.52
2024-03-08T10:03:01.116Z,991.49
2024-03-08T10:04:00.824Z,991.60
2024-03-08T10:05:00.850Z,991.45
2024-03-08T10:06:00.798Z,991.49
2024-03-08T10:07:00.777Z,991.44
2024-03-08T10:08:00.785Z,991.43
2024-03-08T10:09:00.779Z,991.39
2024-03-08T10:10:00.804Z,991.34
2024-03-08T10:11:01.124Z,991.32
2024-03-08T10:12:00.862Z,991.28
2024-03-08T10:13:00.798Z,991.37
2024-03-08T10:14:00.760Z,991.38
2024-03-08T10:15:00.855Z,991.29
2024-03-08T10:16:00.723Z,991.35
2024-03-08T10:17:00.697Z,991.33
2024-03-08T10:18:00.686Z,991.27
2024-03-08T10:19:00.707Z,991.29
2024-03-08T10:20:00.917Z,991.28
2024-03-08T10:21:00.704Z,991.32
2024-03-08T10:22:01.157Z,991.22
2024-03-08T10:23:07.571Z,991.27
2024-03-08T10:24:00.636Z,991.22
2024-03-08T10:25:00.622Z,991.21
2024-03-08T10:26:00.718Z,991.21
2024-03-08T10:27:00.599Z,991.23
2024-03-08T10:28:00.622Z,991.21
2024-03-08T10:29:00.617Z,991.17
2024-03-08T10:30:02.718Z,991.13
2024-03-08T10:31:00.606Z,991.14
2024-03-08T10:32:00.814Z,991.16
2024-03-08T10:33:00.664Z,991.13
2024-03-08T10:34:00.623Z,991.14
2024-03-08T10:35:00.701Z,991.19
2024-03-08T10:36:00.613Z,991.17
2024-03-08T10:37:00.563Z,991.19
2024-03-08T10:38:00.646Z,991.17
2024-03-08T10:39:00.554Z,991.15
2024-03-08T10:40:00.526Z,991.11
2024-03-08T10:41:00.667Z,991.09
2024-03-08T10:42:00.678Z,991.18
2024-03-08T10:43:00.690Z,991.11
2024-03-08T10:44:00.654Z,991.10
2024-03-08T10:45:00.565Z,991.12
2024-03-08T10:46:00.533Z,991.06
2024-03-08T10:47:00.650Z,991.12
2024-03-08T10:48:00.545Z,991.11
2024-03-08T10:49:00.543Z,991.10
2024-03-08T10:50:00.521Z,991.11
2024-03-08T10:51:00.528Z,991.09
2024-03-08T10:52:00.493Z,991.13
2024-03-08T10:53:00.605Z,991.10
2024-03-08T10:54:00.461Z,991.05
2024-03-08T10:55:00.509Z,991.08
2024-03-08T10:56:00.615Z,991.06
2024-03-08T10:57:00.502Z,990.97
2024-03-08T10:58:00.458Z,991.09
2024-03-08T10:59:00.524Z,990.98
2024-03-08T11:00:00.468Z,991.02
2024-03-08T11:01:00.539Z,991.03
2024-03-08T11:02:00.531Z,990.91
2024-03-08T11:03:00.424Z,991.01
2024-03-08T11:04:00.493Z,990.94
2024-03-08T11:05:00.482Z,990.94
2024-03-08T11:06:00.406Z,991.09
2024-03-08T11:07:00.442Z,990.96
2024-03-08T11:08:00.828Z,990.96
2024-03-08T11:09:00.541Z,990.96
2024-03-08T11:10:00.459Z,990.89
2024-03-08T11:11:00.862Z,990.92
2024-03-08T11:12:00.585Z,990.85
2024-03-08T11:13:00.427Z,990.91
2024-03-08T11:14:00.577Z,990.86
2024-03-08T11:15:00.445Z,990.79
2024-03-08T11:16:00.413Z,990.80
2024-03-08T11:17:00.612Z,990.86
2024-03-08T11:18:00.447Z,990.90
2024-03-08T11:19:00.337Z,990.82
2024-03-08T11:20:00.425Z,990.72
2024-03-08T11:21:00.328Z,990.77
2024-03-08T11:22:00.319Z,990.80
2024-03-08T11:23:00.364Z,990.74
2024-03-08T11:24:00.326Z,990.74
2024-03-08T11:25:00.306Z,990.71
2024-03-08T11:26:00.433Z,990.72
2024-03-08T11:27:00.343Z,990.71
2024-03-08T11:28:00.307Z,990.71
2024-03-08T11:29:00.393Z,990.78
2024-03-08T11:30:01.136Z,990.73
2024-03-08T11:31:00.762Z,990.73
2024-03-08T11:32:00.328Z,990.66
2024-03-08T11:33:00.303Z,990.69
2024-03-08T11:34:00.286Z,990.69
2024-03-08T11:35:00.309Z,990.73
2024-03-08T11:36:00.277Z,990.74
2024-03-08T11:37:00.303Z,990.83
2024-03-08T11:38:00.330Z,990.88
2024-03-08T11:39:00.281Z,990.86
2024-03-08T11:40:00.710Z,990.96
2024-03-08T11:41:00.382Z,990.97
2024-03-08T11:42:00.259Z,990.96
2024-03-08T11:43:00.279Z,991.09
2024-03-08T11:44:00.270Z,991.09
2024-03-08T11:45:00.270Z,991.17
2024-03-08T11:46:00.260Z,991.15
2024-03-08T11:47:00.434Z,991.15
2024-03-08T11:48:00.300Z,991.28
2024-03-08T11:49:00.249Z,991.27
2024-03-08T11:50:00.317Z,991.27
2024-03-08T11:51:00.246Z,991.25
2024-03-08T11:52:00.239Z,991.35
2024-03-08T11:53:00.388Z,991.26
2024-03-08T11:54:00.233Z,991.29
2024-03-08T11:55:00.250Z,991.28
2024-03-08T11:56:00.284Z,991.29
2024-03-08T11:57:00.263Z,991.29
2024-03-08T11:58:00.217Z,991.33
2024-03-08T11:59:00.331Z,991.25
2024-03-08T12:00:00.263Z,991.24
2024-03-08T12:01:00.210Z,991.22
2024-03-08T12:02:00.310Z,991.11
2024-03-08T12:03:00.210Z,991.01
2024-03-08T12:04:00.338Z,990.98
2024-03-08T12:05:00.256Z,991.07
2024-03-08T12:06:00.203Z,991.15
2024-03-08T12:07:00.198Z,991.07
2024-03-08T12:08:00.436Z,991.02
2024-03-08T12:09:00.193Z,990.98
2024-03-08T12:10:00.246Z,990.94
2024-03-08T12:11:00.258Z,990.93
2024-03-08T12:12:00.257Z,990.82
2024-03-08T12:13:00.172Z,990.89
2024-03-08T12:14:00.255Z,990.98
2024-03-08T12:15:00.208Z,990.87
2024-03-08T12:16:00.174Z,990.95
2024-03-08T12:17:00.213Z,990.92
2024-03-08T12:18:00.193Z,990.95
2024-03-08T12:19:00.141Z,990.97
2024-03-08T12:20:00.237Z,990.91
2024-03-08T12:21:00.137Z,990.84
2024-03-08T12:22:00.127Z,990.75
2024-03-08T12:23:00.530Z,990.72
2024-03-08T12:24:00.125Z,990.51
2024-03-08T12:25:00.113Z,990.36
2024-03-08T12:26:00.228Z,989.93
2024-03-08T12:27:00.161Z,990.52
2024-03-08T12:28:00.139Z,990.47
2024-03-08T12:29:00.113Z,990.40
2024-03-08T12:30:00.108Z,990.39
2024-03-08T12:31:00.108Z,990.33
2024-03-08T12:32:00.286Z,990.40
2024-03-08T12:33:00.136Z,990.41
2024-03-08T12:34:00.135Z,990.50
2024-03-08T12:35:00.099Z,990.40
2024-03-08T12:36:00.293Z,990.28
2024-03-08T12:37:00.044Z,990.26
2024-03-08T12:38:00.092Z,990.27